Time,TemperatureF,DewpointF,PressureIn,WindDirection,WindDirectionDegrees,WindSpeedMPH,WindSpeedGustMPH,Humidity,HourlyPrecipIn,Conditions,Clouds,dailyrainin,SoftwareType,DateUTC
2013-07-03 00:00:00,62.3,60.6,30.02,WNW,283,0.0,0.0,94,0.00,,,0.00,Wunderground v.1.15,2013-07-03 05:00:00,
2013-07-03 00:05:00,62.1,60.7,30.03,WNW,283,0.0,0.0,95,0.00,,,0.00,Wunderground v.1.15,2013-07-03 05:05:00,
2013-07-03 00:15:00,62.2,60.8,30.02,WNW,283,0.0,0.0,95,0.00,,,0.00,Wunderground v.1.15,2013-07-03 05:15:00,
2013-07-03 00:25:00,62.6,61.1,30.02,WNW,297,0.0,0.0,95,0.00,,,0.00,Wunderground v.1.15,2013-07-03 05:25:00,
2013-07-03 00:40:00,62.7,61.2,30.02,North,5,0.0,0.0,95,0.00,,,0.00,Wunderground v.1.15,2013-07-03 05:40:00,
2013-07-03 00:45:00,62.6,61.1,30.02,North,359,0.0,0.0,95,0.00,,,0.00,Wunderground v.1.15,2013-07-03 05:45:00,
2013-07-03 00:55:00,62.5,61.0,30.02,North,359,0.0,1.0,95,0.00,,,0.00,Wunderground v.1.15,2013-07-03 05:55:00,
2013-07-03 01:00:00,62.5,61.0,30.01,North,358,0.0,0.0,95,0.00,,,0.00,Wunderground v.1.15,2013-07-03 06:00:00,
2013-07-03 01:15:00,62.5,61.0,30.02,NNE,20,0.0,0.0,95,0.00,,,0.00,Wunderground v.1.15,2013-07-03 06:15:00,
2013-07-03 01:20:00,62.5,61.0,30.01,NNE,20,0.0,0.0,95,0.00,,,0.00,Wunderground v.1.15,2013-07-03 06:20:00,
2013-07-03 01:25:00,62.4,60.9,30.01,NNE,20,0.0,0.0,95,0.00,,,0.00,Wunderground v.1.15,2013-07-03 06:25:00,
2013-07-03 01:35:00,61.3,59.6,30.01,SE,131,0.0,2.0,94,0.00,,,0.00,Wunderground v.1.15,2013-07-03 06:35:00,
2013-07-03 01:40:00,60.8,59.4,30.01,SE,132,0.0,0.0,95,0.00,,,0.00,Wunderground v.1.15,2013-07-03 06:40:00,
2013-07-03 01:50:00,60.7,59.3,30.01,East,88,1.0,3.0,95,0.00,,,0.00,Wunderground v.1.15,2013-07-03 06:50:00,
2013-07-03 01:55:00,60.6,59.2,30.01,East,100,2.0,3.0,95,0.00,,,0.00,Wunderground v.1.15,2013-07-03 06:55:00,
2013-07-03 02:00:00,60.2,58.8,30.01,East,100,1.0,1.0,95,0.00,,,0.00,Wunderground v.1.15,2013-07-03 07:00:00,
2013-07-03 02:10:00,59.5,58.1,30.01,East,100,0.0,0.0,95,0.00,,,0.00,Wunderground v.1.15,2013-07-03 07:10:00,
2013-07-03 02:25:00,58.4,57.0,30.01,East,101,0.0,0.0,95,0.00,,,0.00,Wunderground v.1.15,2013-07-03 07:25:00,
2013-07-03 02:30:00,58.2,56.8,30.01,East,100,0.0,0.0,95,0.00,,,0.00,Wunderground v.1.15,2013-07-03 07:30:00,
2013-07-03 02:35:00,58.1,56.7,30.00,East,100,0.0,0.0,95,0.00,,,0.00,Wunderground v.1.15,2013-07-03 07:35:00,
2013-07-03 02:45:00,57.5,56.1,30.00,East,100,0.0,0.0,95,0.00,,,0.00,Wunderground v.1.15,2013-07-03 07:45:00,
2013-07-03 02:55:00,57.9,56.8,30.00,East,100,0.0,0.0,96,0.00,,,0.00,Wunderground v.1.15,2013-07-03 07:55:00,
2013-07-03 03:05:00,58.2,57.1,30.00,East,101,0.0,0.0,96,0.00,,,0.00,Wunderground v.1.15,2013-07-03 08:05:00,
2013-07-03 03:10:00,58.1,57.0,30.00,East,100,0.0,0.0,96,0.00,,,0.00,Wunderground v.1.15,2013-07-03 08:10:00,
2013-07-03 03:20:00,58.5,57.4,30.00,East,100,0.0,0.0,96,0.00,,,0.00,Wunderground v.1.15,2013-07-03 08:20:00,
2013-07-03 03:25:00,58.4,57.3,30.00,East,98,0.0,0.0,96,0.00,,,0.00,Wunderground v.1.15,2013-07-03 08:25:00,
2013-07-03 03:30:00,58.2,57.1,30.00,North,5,0.0,0.0,96,0.00,,,0.00,Wunderground v.1.15,2013-07-03 08:30:00,
2013-07-03 03:40:00,58.9,57.8,30.00,WNW,302,0.0,0.0,96,0.00,,,0.00,Wunderground v.1.15,2013-07-03 08:40:00,
2013-07-03 03:50:00,58.5,57.4,30.00,WNW,282,0.0,0.0,96,0.00,,,0.01,Wunderground v.1.15,2013-07-03 08:50:00,
2013-07-03 03:55:00,58.4,57.3,30.00,WNW,283,0.0,0.0,96,0.00,,,0.01,Wunderground v.1.15,2013-07-03 08:55:00,
2013-07-03 04:00:00,58.1,57.0,30.00,WNW,283,0.0,0.0,96,0.00,,,0.01,Wunderground v.1.15,2013-07-03 09:00:00,
2013-07-03 04:10:00,58.0,56.9,30.00,WNW,283,0.0,0.0,96,0.00,,,0.01,Wunderground v.1.15,2013-07-03 09:10:00,
2013-07-03 04:20:00,58.1,57.0,30.00,NE,49,0.0,0.0,96,0.00,,,0.01,Wunderground v.1.15,2013-07-03 09:20:00,
2013-07-03 04:25:00,57.8,56.7,30.00,ENE,72,0.0,0.0,96,0.00,,,0.01,Wunderground v.1.15,2013-07-03 09:25:00,
2013-07-03 04:30:00,57.5,56.4,30.00,ENE,72,0.0,0.0,96,0.00,,,0.01,Wunderground v.1.15,2013-07-03 09:30:00,
2013-07-03 04:40:00,56.6,55.2,30.00,ENE,72,0.0,0.0,95,0.00,,,0.01,Wunderground v.1.15,2013-07-03 09:40:00,
2013-07-03 04:50:00,56.6,55.2,30.00,ENE,71,0.0,0.0,95,0.00,,,0.01,Wunderground v.1.15,2013-07-03 09:50:00,
2013-07-03 05:00:00,56.6,55.5,30.00,ENE,71,0.0,0.0,96,0.00,,,0.01,Wunderground v.1.15,2013-07-03 10:00:00,
2013-07-03 05:10:00,56.1,54.7,30.00,ENE,70,0.0,0.0,95,0.00,,,0.01,Wunderground v.1.15,2013-07-03 10:10:00,
2013-07-03 05:25:00,55.3,53.9,30.00,WNW,294,0.0,0.0,95,0.00,,,0.01,Wunderground v.1.15,2013-07-03 10:25:00,
2013-07-03 05:30:00,55.3,54.2,30.00,WNW,285,0.0,0.0,96,0.00,,,0.01,Wunderground v.1.15,2013-07-03 10:30:00,
2013-07-03 05:35:00,55.2,53.8,30.01,WNW,286,0.0,0.0,95,0.00,,,0.01,Wunderground v.1.15,2013-07-03 10:35:00,
2013-07-03 05:40:00,55.2,53.8,30.01,WNW,285,1.0,1.0,95,0.00,,,0.01,Wunderground v.1.15,2013-07-03 10:40:00,
2013-07-03 05:45:00,55.9,54.8,30.01,WNW,285,1.0,1.0,96,0.00,,,0.01,Wunderground v.1.15,2013-07-03 10:45:00,
2013-07-03 05:55:00,56.4,55.3,30.01,WNW,288,1.0,1.0,96,0.00,,,0.01,Wunderground v.1.15,2013-07-03 10:55:00,
2013-07-03 06:00:00,56.3,55.2,30.01,WNW,288,0.0,1.0,96,0.00,,,0.01,Wunderground v.1.15,2013-07-03 11:00:00,
2013-07-03 06:10:00,56.7,55.6,30.02,WNW,293,1.0,1.0,96,0.00,,,0.01,Wunderground v.1.15,2013-07-03 11:10:00,
2013-07-03 06:15:00,56.7,55.6,30.01,WNW,293,0.0,1.0,96,0.00,,,0.01,Wunderground v.1.15,2013-07-03 11:15:00,
2013-07-03 06:25:00,57.0,55.9,30.02,NNE,23,0.0,2.0,96,0.00,,,0.01,Wunderground v.1.15,2013-07-03 11:25:00,
2013-07-03 06:40:00,56.9,55.8,30.02,North,352,0.0,0.0,96,0.00,,,0.01,Wunderground v.1.15,2013-07-03 11:40:00,
2013-07-03 06:45:00,56.9,55.5,30.02,North,352,0.0,0.0,95,0.00,,,0.01,Wunderground v.1.15,2013-07-03 11:45:00,
2013-07-03 06:50:00,57.0,55.6,30.02,NNW,338,0.0,1.0,95,0.00,,,0.01,Wunderground v.1.15,2013-07-03 11:50:00,
2013-07-03 07:00:00,57.8,56.7,30.02,NNE,14,1.0,1.0,96,0.00,,,0.01,Wunderground v.1.15,2013-07-03 12:00:00,
2013-07-03 07:10:00,58.3,56.9,30.02,NNW,344,1.0,1.0,95,0.00,,,0.01,Wunderground v.1.15,2013-07-03 12:10:00,
2013-07-03 07:15:00,58.7,57.3,30.01,NNW,335,1.0,1.0,95,0.00,,,0.01,Wunderground v.1.15,2013-07-03 12:15:00,
2013-07-03 07:25:00,59.6,58.2,30.01,NNW,331,1.0,2.0,95,0.00,,,0.01,Wunderground v.1.15,2013-07-03 12:25:00,
2013-07-03 07:30:00,60.1,58.7,30.01,NW,326,2.0,2.0,95,0.00,,,0.01,Wunderground v.1.15,2013-07-03 12:30:00,
2013-07-03 07:35:00,60.6,59.2,30.01,NNW,330,2.0,2.0,95,0.00,,,0.01,Wunderground v.1.15,2013-07-03 12:35:00,
2013-07-03 07:45:00,61.9,60.5,30.01,WNW,287,1.0,1.0,95,0.00,,,0.01,Wunderground v.1.15,2013-07-03 12:45:00,
2013-07-03 08:00:00,63.2,60.8,30.02,NW,306,1.0,1.0,92,0.00,,,0.01,Wunderground v.1.15,2013-07-03 13:00:00,
2013-07-03 08:10:00,63.7,61.3,30.02,NNW,333,2.0,2.0,92,0.00,,,0.01,Wunderground v.1.15,2013-07-03 13:10:00,
2013-07-03 08:20:00,64.6,61.9,30.02,NW,316,3.0,4.0,91,0.00,,,0.01,Wunderground v.1.15,2013-07-03 13:20:00,
2013-07-03 08:25:00,65.3,62.3,30.01,NNW,340,3.0,4.0,90,0.00,,,0.01,Wunderground v.1.15,2013-07-03 13:25:00,
2013-07-03 08:35:00,66.6,63.3,30.02,NNW,330,3.0,3.0,89,0.00,,,0.01,Wunderground v.1.15,2013-07-03 13:35:00,
2013-07-03 08:50:00,68.4,63.4,30.02,NNE,13,2.0,2.0,84,0.00,,,0.01,Wunderground v.1.15,2013-07-03 13:50:00,
2013-07-03 08:55:00,69.0,64.0,30.02,NNW,340,2.0,2.0,84,0.00,,,0.01,Wunderground v.1.15,2013-07-03 13:55:00,
2013-07-03 09:00:00,69.7,64.6,30.02,NW,309,1.0,1.0,84,0.00,,,0.01,Wunderground v.1.15,2013-07-03 14:00:00,
2013-07-03 09:10:00,70.8,65.0,30.02,North,10,1.0,1.0,82,0.00,,,0.01,Wunderground v.1.15,2013-07-03 14:10:00,
2013-07-03 09:15:00,71.4,65.6,30.02,North,349,2.0,2.0,82,0.00,,,0.01,Wunderground v.1.15,2013-07-03 14:15:00,
2013-07-03 09:20:00,71.6,64.0,30.02,NW,326,2.0,3.0,77,0.00,,,0.01,Wunderground v.1.15,2013-07-03 14:20:00,
2013-07-03 09:25:00,72.0,64.8,30.02,NE,39,2.0,3.0,78,0.00,,,0.01,Wunderground v.1.15,2013-07-03 14:25:00,
2013-07-03 09:30:00,72.5,63.7,30.02,North,6,2.0,4.0,74,0.00,,,0.01,Wunderground v.1.15,2013-07-03 14:30:00,
2013-07-03 09:40:00,73.2,63.6,30.01,NW,314,2.0,2.0,72,0.00,,,0.01,Wunderground v.1.15,2013-07-03 14:40:00,
2013-07-03 09:45:00,73.8,65.0,30.01,West,276,1.0,2.0,74,0.00,,,0.01,Wunderground v.1.15,2013-07-03 14:45:00,
2013-07-03 09:55:00,75.7,66.4,30.01,NNW,344,1.0,1.0,73,0.00,,,0.01,Wunderground v.1.15,2013-07-03 14:55:00,
2013-07-03 10:10:00,76.0,64.2,30.01,NNW,338,1.0,1.0,67,0.00,,,0.01,Wunderground v.1.15,2013-07-03 15:10:00,
2013-07-03 10:20:00,76.4,64.6,30.01,WNW,284,1.0,1.0,67,0.00,,,0.01,Wunderground v.1.15,2013-07-03 15:20:00,
2013-07-03 10:30:00,77.2,65.4,30.00,North,9,2.0,2.0,67,0.00,,,0.01,Wunderground v.1.15,2013-07-03 15:30:00,
2013-07-03 10:35:00,77.4,65.6,30.00,NNE,15,1.0,2.0,67,0.00,,,0.01,Wunderground v.1.15,2013-07-03 15:35:00,
2013-07-03 10:40:00,77.6,64.5,30.00,NE,44,1.0,1.0,64,0.00,,,0.01,Wunderground v.1.15,2013-07-03 15:40:00,
2013-07-03 10:50:00,77.9,66.1,30.00,WSW,248,1.0,1.0,67,0.00,,,0.01,Wunderground v.1.15,2013-07-03 15:50:00,
2013-07-03 10:55:00,78.5,65.8,30.00,WSW,243,1.0,2.0,65,0.00,,,0.01,Wunderground v.1.15,2013-07-03 15:55:00,
2013-07-03 11:00:00,78.8,66.5,30.00,WSW,256,2.0,2.0,66,0.00,,,0.01,Wunderground v.1.15,2013-07-03 16:00:00,
2013-07-03 11:05:00,78.9,63.4,30.00,West,264,2.0,2.0,59,0.00,,,0.01,Wunderground v.1.15,2013-07-03 16:05:00,
2013-07-03 11:10:00,79.3,65.1,30.00,NW,311,2.0,3.0,62,0.00,,,0.01,Wunderground v.1.15,2013-07-03 16:10:00,
2013-07-03 11:35:00,79.7,61.6,30.00,NNW,336,2.0,2.0,54,0.00,,,0.01,Wunderground v.1.15,2013-07-03 16:35:00,
2013-07-03 11:40:00,79.8,64.2,29.99,WNW,288,2.0,2.0,59,0.00,,,0.01,Wunderground v.1.15,2013-07-03 16:40:00,
2013-07-03 11:45:00,80.2,62.6,29.99,SW,219,2.0,2.0,55,0.00,,,0.01,Wunderground v.1.15,2013-07-03 16:45:00,
2013-07-03 11:50:00,80.8,62.1,29.99,NW,326,1.0,1.0,53,0.00,,,0.01,Wunderground v.1.15,2013-07-03 16:50:00,
2013-07-03 12:00:00,81.6,61.2,29.99,South,191,1.0,4.0,50,0.00,,,0.01,Wunderground v.1.15,2013-07-03 17:00:00,
2013-07-03 12:15:00,82.7,60.4,29.99,WSW,252,1.0,1.0,47,0.00,,,0.01,Wunderground v.1.15,2013-07-03 17:15:00,
2013-07-03 12:25:00,82.4,61.9,29.99,South,170,2.0,4.0,50,0.00,,,0.01,Wunderground v.1.15,2013-07-03 17:25:00,
2013-07-03 12:40:00,83.2,62.1,29.98,SE,135,1.0,1.0,49,0.00,,,0.01,Wunderground v.1.15,2013-07-03 17:40:00,
2013-07-03 12:45:00,83.6,60.6,29.98,SSE,156,1.0,2.0,46,0.00,,,0.01,Wunderground v.1.15,2013-07-03 17:45:00,
2013-07-03 12:50:00,83.2,61.5,29.98,WNW,294,2.0,2.0,48,0.00,,,0.01,Wunderground v.1.15,2013-07-03 17:50:00,
2013-07-03 13:00:00,83.1,59.6,29.98,NNE,16,1.0,1.0,45,0.00,,,0.01,Wunderground v.1.15,2013-07-03 18:00:00,
2013-07-03 13:10:00,83.8,62.0,29.97,NNE,23,2.0,3.0,48,0.00,,,0.01,Wunderground v.1.15,2013-07-03 18:10:00,
2013-07-03 13:20:00,83.8,62.6,29.97,SW,225,1.0,2.0,49,0.00,,,0.01,Wunderground v.1.15,2013-07-03 18:20:00,
2013-07-03 13:25:00,83.9,61.5,29.97,SSW,194,2.0,5.0,47,0.00,,,0.01,Wunderground v.1.15,2013-07-03 18:25:00,
2013-07-03 13:35:00,83.9,58.3,29.97,SSE,166,2.0,3.0,42,0.00,,,0.01,Wunderground v.1.15,2013-07-03 18:35:00,
2013-07-03 13:40:00,84.1,57.9,29.97,NW,308,2.0,2.0,41,0.00,,,0.01,Wunderground v.1.15,2013-07-03 18:40:00,
2013-07-03 13:50:00,83.9,57.0,29.96,SSW,197,3.0,3.0,40,0.00,,,0.01,Wunderground v.1.15,2013-07-03 18:50:00,
2013-07-03 14:00:00,84.7,57.7,29.96,ESE,108,1.0,3.0,40,0.00,,,0.01,Wunderground v.1.15,2013-07-03 19:00:00,
2013-07-03 14:10:00,83.8,57.6,29.95,North,9,3.0,3.0,41,0.00,,,0.01,Wunderground v.1.15,2013-07-03 19:10:00,
2013-07-03 14:15:00,83.8,56.2,29.96,SSE,160,3.0,5.0,39,0.00,,,0.01,Wunderground v.1.15,2013-07-03 19:15:00,
2013-07-03 14:25:00,84.1,58.5,29.95,NE,51,3.0,4.0,42,0.00,,,0.01,Wunderground v.1.15,2013-07-03 19:25:00,
2013-07-03 14:35:00,84.6,57.6,29.95,WNW,289,2.0,2.0,40,0.00,,,0.01,Wunderground v.1.15,2013-07-03 19:35:00,
2013-07-03 14:45:00,84.1,55.7,29.95,NE,50,2.0,2.0,38,0.00,,,0.01,Wunderground v.1.15,2013-07-03 19:45:00,
2013-07-03 15:00:00,83.9,57.0,29.95,WSW,246,4.0,7.0,40,0.00,,,0.01,Wunderground v.1.15,2013-07-03 20:00:00,
2013-07-03 15:10:00,84.0,57.8,29.95,West,266,4.0,4.0,41,0.00,,,0.01,Wunderground v.1.15,2013-07-03 20:10:00,
2013-07-03 15:25:00,85.0,58.7,29.94,SE,143,2.0,2.0,41,0.00,,,0.01,Wunderground v.1.15,2013-07-03 20:25:00,
2013-07-03 15:35:00,85.3,58.9,29.94,WNW,287,1.0,2.0,41,0.00,,,0.01,Wunderground v.1.15,2013-07-03 20:35:00,
2013-07-03 15:40:00,85.7,59.3,29.94,SSE,163,1.0,3.0,41,0.00,,,0.01,Wunderground v.1.15,2013-07-03 20:40:00,
2013-07-03 15:50:00,85.4,59.7,29.93,South,183,3.0,3.0,42,0.00,,,0.01,Wunderground v.1.15,2013-07-03 20:50:00,
2013-07-03 16:00:00,85.6,59.9,29.92,SW,227,3.0,3.0,42,0.00,,,0.01,Wunderground v.1.15,2013-07-03 21:00:00,
2013-07-03 16:10:00,85.2,58.2,29.92,South,176,3.0,3.0,40,0.00,,,0.01,Wunderground v.1.15,2013-07-03 21:10:00,
2013-07-03 16:15:00,85.3,61.6,29.92,East,98,3.0,3.0,45,0.00,,,0.01,Wunderground v.1.15,2013-07-03 21:15:00,
2013-07-03 16:20:00,85.4,58.3,29.92,SE,144,2.0,2.0,40,0.00,,,0.01,Wunderground v.1.15,2013-07-03 21:20:00,
2013-07-03 16:35:00,86.5,59.3,29.92,West,279,1.0,2.0,40,0.00,,,0.01,Wunderground v.1.15,2013-07-03 21:35:00,
2013-07-03 16:45:00,86.5,59.3,29.92,SE,143,1.0,4.0,40,0.00,,,0.01,Wunderground v.1.15,2013-07-03 21:45:00,
2013-07-03 16:55:00,85.9,60.1,29.92,South,176,3.0,6.0,42,0.00,,,0.01,Wunderground v.1.15,2013-07-03 21:55:00,
2013-07-03 17:00:00,85.7,58.6,29.91,SE,141,3.0,3.0,40,0.00,,,0.01,Wunderground v.1.15,2013-07-03 22:00:00,
2013-07-03 17:10:00,84.3,61.9,29.92,SE,139,3.0,7.0,47,0.00,,,0.01,Wunderground v.1.15,2013-07-03 22:10:00,
2013-07-03 17:25:00,79.5,62.9,29.92,ESE,114,7.0,10.0,57,0.00,,,0.01,Wunderground v.1.15,2013-07-03 22:25:00,
2013-07-03 17:30:00,78.9,60.8,29.92,ESE,120,8.0,8.0,54,0.00,,,0.01,Wunderground v.1.15,2013-07-03 22:30:00,
2013-07-03 17:40:00,79.4,62.3,29.92,East,101,8.0,8.0,56,0.00,,,0.01,Wunderground v.1.15,2013-07-03 22:40:00,
2013-07-03 17:50:00,79.5,60.9,29.92,East,93,7.0,7.0,53,0.00,,,0.01,Wunderground v.1.15,2013-07-03 22:50:00,
2013-07-03 18:00:00,79.0,61.5,29.91,SSE,149,7.0,7.0,55,0.00,,,0.01,Wunderground v.1.15,2013-07-03 23:00:00,
2013-07-03 18:10:00,79.1,61.5,29.91,South,169,5.0,5.0,55,0.00,,,0.01,Wunderground v.1.15,2013-07-03 23:10:00,
2013-07-03 18:20:00,79.0,60.9,29.90,ESE,118,6.0,7.0,54,0.00,,,0.01,Wunderground v.1.15,2013-07-03 23:20:00,
2013-07-03 18:35:00,79.2,61.1,29.90,SE,136,7.0,9.0,54,0.00,,,0.01,Wunderground v.1.15,2013-07-03 23:35:00,
2013-07-03 18:40:00,79.2,60.6,29.90,SSE,150,7.0,8.0,53,0.00,,,0.01,Wunderground v.1.15,2013-07-03 23:40:00,
2013-07-03 18:50:00,78.9,60.3,29.90,South,176,6.0,6.0,53,0.00,,,0.01,Wunderground v.1.15,2013-07-03 23:50:00,
2013-07-03 19:05:00,78.5,59.4,29.90,SE,141,5.0,6.0,52,0.00,,,0.01,Wunderground v.1.15,2013-07-04 00:05:00,
2013-07-03 19:15:00,78.4,59.9,29.90,SSE,154,4.0,5.0,53,0.00,,,0.01,Wunderground v.1.15,2013-07-04 00:15:00,
2013-07-03 19:25:00,78.3,60.8,29.89,SSE,148,4.0,4.0,55,0.00,,,0.01,Wunderground v.1.15,2013-07-04 00:25:00,
2013-07-03 19:35:00,78.1,60.1,29.89,SE,131,3.0,4.0,54,0.00,,,0.01,Wunderground v.1.15,2013-07-04 00:35:00,
2013-07-03 19:50:00,77.4,61.5,29.89,SE,143,2.0,2.0,58,0.00,,,0.01,Wunderground v.1.15,2013-07-04 00:50:00,
2013-07-03 19:55:00,77.2,61.8,29.89,SE,132,2.0,2.0,59,0.00,,,0.01,Wunderground v.1.15,2013-07-04 00:55:00,
2013-07-03 20:00:00,77.1,61.2,29.90,SSE,148,1.0,2.0,58,0.00,,,0.01,Wunderground v.1.15,2013-07-04 01:00:00,
2013-07-03 20:10:00,76.5,60.6,29.89,SSE,148,1.0,1.0,58,0.00,,,0.01,Wunderground v.1.15,2013-07-04 01:10:00,
2013-07-03 20:15:00,76.2,60.8,29.90,SE,142,1.0,2.0,59,0.00,,,0.01,Wunderground v.1.15,2013-07-04 01:15:00,
2013-07-03 20:25:00,75.3,60.5,29.89,SSE,150,1.0,1.0,60,0.00,,,0.01,Wunderground v.1.15,2013-07-04 01:25:00,
2013-07-03 20:35:00,74.1,60.2,29.89,SE,134,1.0,2.0,62,0.00,,,0.01,Wunderground v.1.15,2013-07-04 01:35:00,
2013-07-03 20:55:00,72.1,58.8,29.90,SE,135,0.0,1.0,63,0.00,,,0.01,Wunderground v.1.15,2013-07-04 01:55:00,
2013-07-03 21:05:00,71.6,58.8,29.90,SE,131,0.0,0.0,64,0.00,,,0.01,Wunderground v.1.15,2013-07-04 02:05:00,
2013-07-03 21:10:00,71.3,58.1,29.90,SE,125,1.0,1.0,63,0.00,,,0.01,Wunderground v.1.15,2013-07-04 02:10:00,
2013-07-03 21:35:00,69.6,58.6,29.90,ESE,108,1.0,1.0,68,0.00,,,0.01,Wunderground v.1.15,2013-07-04 02:35:00,
2013-07-03 21:40:00,69.3,59.1,29.91,SE,145,1.0,2.0,70,0.00,,,0.01,Wunderground v.1.15,2013-07-04 02:40:00,
2013-07-03 21:50:00,68.5,58.7,29.91,SE,141,1.0,2.0,71,0.00,,,0.01,Wunderground v.1.15,2013-07-04 02:50:00,
2013-07-03 22:00:00,68.0,58.6,29.92,SSE,158,2.0,2.0,72,0.00,,,0.01,Wunderground v.1.15,2013-07-04 03:00:00,
2013-07-03 22:10:00,67.1,58.5,29.92,SSE,154,1.0,1.0,74,0.00,,,0.01,Wunderground v.1.15,2013-07-04 03:10:00,
2013-07-03 22:25:00,64.9,58.6,29.92,SSE,153,1.0,1.0,80,0.00,,,0.01,Wunderground v.1.15,2013-07-04 03:25:00,
2013-07-03 22:45:00,64.9,58.6,29.92,SE,131,1.0,2.0,80,0.00,,,0.01,Wunderground v.1.15,2013-07-04 03:45:00,
2013-07-03 22:50:00,65.0,58.7,29.92,SE,131,0.0,0.0,80,0.00,,,0.01,Wunderground v.1.15,2013-07-04 03:50:00,
2013-07-03 23:00:00,65.3,58.6,29.92,ESE,122,1.0,1.0,79,0.00,,,0.01,Wunderground v.1.15,2013-07-04 04:00:00,
2013-07-03 23:05:00,65.4,58.4,29.92,SE,135,1.0,1.0,78,0.00,,,0.01,Wunderground v.1.15,2013-07-04 04:05:00,
2013-07-03 23:10:00,65.6,58.2,29.91,ESE,122,1.0,1.0,77,0.00,,,0.01,Wunderground v.1.15,2013-07-04 04:10:00,
2013-07-03 23:15:00,65.7,58.3,29.91,ESE,111,1.0,1.0,77,0.00,,,0.01,Wunderground v.1.15,2013-07-04 04:15:00,
2013-07-03 23:25:00,65.2,58.2,29.91,SE,138,1.0,1.0,78,0.00,,,0.01,Wunderground v.1.15,2013-07-04 04:25:00,
2013-07-03 23:35:00,64.6,57.9,29.91,SSE,148,1.0,1.0,79,0.00,,,0.01,Wunderground v.1.15,2013-07-04 04:35:00,
2013-07-03 23:40:00,64.4,57.7,29.92,SE,131,1.0,1.0,79,0.00,,,0.01,Wunderground v.1.15,2013-07-04 04:40:00,
2013-07-03 23:50:00,63.7,57.4,29.92,SSE,153,1.0,1.0,80,0.00,,,0.01,Wunderground v.1.15,2013-07-04 04:50:00,
2013-07-03 23:55:00,63.7,57.8,29.92,SSE,147,1.0,1.0,81,0.00,,,0.01,Wunderground v.1.15,2013-07-04 04:55:00,